Ana Sayfa
METAR-TAF:

METAR-TAF

Havaalanları :

Hayfa, İsrail

Enlem: 32-48N, Boylam: 035-02E, yükseklik: 8 m

Güncel hava durumu gözlemi

Rapor saat 17:50 UTC de 7 saat ve 7 dakika önce yapıldı.
Rüzgar batıdan 6 kt
Sıcaklık 17°C
Nem 77%
Basınç 1016 hPa
Görüş mesafesi 10 km veya daha fazla
2000 ft yükseklikte parçalı bulutlu

METAR: LLHA 251750Z 28006KT 9999 SCT020 17/13 Q1016

Saat: 02:57 (00:57 UTC)

Tahmin

Rapor saat 23:16 UTC de 1 saat ve 41 dakika önce yapıldı.
Ayın 26'si saat 00 UTC'den ayın 26'si saat 24 UTC'ye kadar geçerli Tahmin
Rüzgar batı/güneybatıdan 8 kt
Görüş mesafesi 10 km veya daha fazla
2300 ft yükseklikte parçalı bulutlu
Dönüşüyor
ayın 26'si saat 16 UTC'den ayın 26'si saat 18 UTC'ye kadar
Rüzgar güney/güneydoğudan 6 kt
1800 ft yükseklikte parçalı bulutlu

TAF: LLHA 252316Z 2600/2624 24008KT 9999 SCT023 BECMG 2616/2618 15006KT SCT018 TX18/2611Z TN15/2604Z

4.000'den fazla havaalanı için hava durumu gözlemleri ve tahminleri (METAR ve TAF raporları).

Kullanılabilir istasyonlar harita üzerinde sarı ve kırmızı noktalarla gösterilir.

İstasyonun adını görmek için fareyi noktanın üzerinde gezdirin.

Sonrasında hava gözlem ve tahminlerini görmek için tıklayın.

Haritayı değiştirmek için: yaklaştırmak için siyah artı işaretli yeşil düğmeye ve uzaklaştırmak için de eksi işaretli düğmeye hızla tıklayın; bitişik haritalar için yeşil okları kullanın.


METAR-TAF: